createdAt,value
2022-10-06T00:04:49.296Z,1019.8520864882408
2022-10-06T00:11:17.366Z,1019.8904261644301
2022-10-06T00:17:44.962Z,1020.0240226746419
2022-10-06T00:28:09.473Z,1020.1072469556271
2022-10-06T00:34:36.896Z,1020.1546508090961
2022-10-06T00:41:03.518Z,1020.1469573836783
2022-10-06T00:47:31.257Z,1020.281214901683
2022-10-06T00:53:59.034Z,1020.3834901043824
2022-10-06T01:00:26.160Z,1020.4350068347663
2022-10-06T01:06:53.520Z,1020.4676921477877
2022-10-06T01:13:20.662Z,1020.583129514305
2022-10-06T01:19:48.872Z,1020.7275582929714
2022-10-06T01:26:26.226Z,1020.8364233940514
2022-10-06T01:32:52.833Z,1020.9641501503439
2022-10-06T01:39:19.929Z,1021.0449596855542
2022-10-06T01:45:47.415Z,1021.0884188458442
2022-10-06T02:02:40.142Z,1021.4029837889698
2022-10-06T02:09:07.581Z,1021.469566744656
2022-10-06T02:17:59.034Z,1021.6240699090197
2022-10-06T02:24:34.757Z,1021.7045276142917
2022-10-06T02:31:02.053Z,1021.8237567058867
2022-10-06T02:37:29.441Z,1021.9134205121857
2022-10-06T02:43:56.641Z,1022.0270739765239
2022-10-06T02:50:30.081Z,1022.1666630607499
2022-10-06T02:56:56.942Z,1022.2576554671975
2022-10-06T03:03:24.796Z,1022.4183867199094
2022-10-06T03:09:52.662Z,1022.4919920794749
2022-10-06T03:22:25.599Z,1022.8036828404476
2022-10-06T03:28:59.106Z,1022.8877772372514
2022-10-06T03:35:26.750Z,1023.1168396166559
2022-10-06T03:41:54.452Z,1023.1741741152679
2022-10-06T03:48:21.813Z,1023.296496353741
2022-10-06T03:54:49.495Z,1023.4069764177386
2022-10-06T04:01:18.431Z,1023.5366722696389
2022-10-06T04:07:47.379Z,1023.6794432312777
2022-10-06T04:14:16.282Z,1023.7614043987804
2022-10-06T04:20:45.245Z,1023.8379172321033
2022-10-06T04:27:13.436Z,1023.9550933430727
2022-10-06T04:35:29.070Z,1024.0930219142147
2022-10-06T04:42:00.290Z,1024.287366367704
2022-10-06T04:48:36.242Z,1024.3822912779874
2022-10-06T04:55:10.290Z,1024.5233022175432
2022-10-06T05:07:10.215Z,1024.7491625309724
2022-10-06T05:13:37.932Z,1024.8605289947448
2022-10-06T05:32:04.303Z,1025.259246998478
2022-10-06T05:44:07.812Z,1025.4780765407766
2022-10-06T05:50:36.126Z,1025.670143080493
2022-10-06T06:02:10.535Z,1025.8391934234132
2022-10-06T06:11:48.082Z,1025.9942857331268
2022-10-06T06:18:15.677Z,1026.148194403903
2022-10-06T06:25:02.222Z,1026.3297988668032
2022-10-06T06:31:43.542Z,1026.3919472791738
2022-10-06T06:38:24.159Z,1026.4868623847528
2022-10-06T06:49:12.694Z,1026.7767343936337
2022-10-06T06:55:52.880Z,1026.9397355751205
2022-10-06T07:02:32.657Z,1027.0134793277743
2022-10-06T07:12:48.866Z,1027.1726193444283
2022-10-06T07:27:10.469Z,1027.3958238816542
2022-10-06T07:33:50.105Z,1027.5936039959179
2022-10-06T07:40:29.485Z,1027.7654677101464
2022-10-06T07:47:10.496Z,1027.87882257786
2022-10-06T07:53:51.313Z,1028.0316245101972
2022-10-06T08:07:13.929Z,1028.2041048291198
2022-10-06T08:13:55.757Z,1028.2972081873704
2022-10-06T08:20:26.056Z,1028.3812835687188
2022-10-06T08:29:50.366Z,1028.5180488275566
2022-10-06T08:36:18.367Z,1028.6798839846406
2022-10-06T08:42:48.937Z,1028.8076650394987
2022-10-06T08:49:16.491Z,1028.9024718061435
2022-10-06T09:00:04.455Z,1029.0013567790122
2022-10-06T09:06:32.078Z,1029.0877173273752
2022-10-06T09:12:59.411Z,1029.179329618545
2022-10-06T09:19:30.005Z,1029.2048429016743
2022-10-06T09:26:03.837Z,1029.2184544753989
2022-10-06T09:32:34.047Z,1029.3358066063574
2022-10-06T09:40:18.976Z,1029.4295933892997
2022-10-06T09:46:54.207Z,1029.5539819414912
2022-10-06T09:53:22.519Z,1029.6028289546941
2022-10-06T10:00:01.754Z,1029.6356127324148
2022-10-06T10:06:44.355Z,1029.6108716471895
2022-10-06T10:18:23.813Z,1029.7428655557487
2022-10-06T10:25:14.352Z,1029.7807218101864
2022-10-06T10:31:57.820Z,1029.8059954181058
2022-10-06T10:38:37.111Z,1029.838462000504
2022-10-06T10:45:15.159Z,1029.8957149956311
2022-10-06T10:51:44.960Z,1030.0285615816167
2022-10-06T10:58:12.765Z,1030.1386534943956
2022-10-06T11:09:06.476Z,1030.2097060300935
2022-10-06T11:16:49.302Z,1030.1953886500796
2022-10-06T11:23:17.686Z,1030.2415666487982
2022-10-06T11:30:33.720Z,1030.309184001538
2022-10-06T11:37:03.124Z,1030.2909262608023
2022-10-06T11:43:33.578Z,1030.240386269067
2022-10-06T11:50:03.769Z,1030.2189381095416
2022-10-06T12:02:11.836Z,1030.1848527868317
2022-10-06T12:08:47.392Z,1030.1699473144215
2022-10-06T12:23:03.841Z,1030.2711282909447
2022-10-06T12:29:35.736Z,1030.2557822082092
2022-10-06T12:36:03.965Z,1030.2241953346888
2022-10-06T12:42:31.490Z,1030.2797560028123
2022-10-06T12:49:01.604Z,1030.2838791607855
2022-10-06T12:55:32.695Z,1030.2548062946335
2022-10-06T13:02:03.117Z,1030.2351273763372
2022-10-06T13:08:39.613Z,1030.2490143367863
2022-10-06T13:15:23.529Z,1030.2609871447344
2022-10-06T13:21:54.178Z,1030.26129427207
2022-10-06T13:28:25.478Z,1030.2282462048213
2022-10-06T13:35:54.018Z,1030.2084865164488
2022-10-06T13:42:25.540Z,1030.204670941538
2022-10-06T13:48:56.877Z,1030.2788588670169
2022-10-06T13:55:26.438Z,1030.290135931416
2022-10-06T14:01:54.892Z,1030.264484968896
2022-10-06T14:15:26.473Z,1030.2702562636898
2022-10-06T14:22:01.578Z,1030.2950152097649
2022-10-06T14:28:46.072Z,1030.309189184037
2022-10-06T14:35:14.977Z,1030.367704376486
2022-10-06T14:41:43.360Z,1030.4252424153797
2022-10-06T14:48:12.638Z,1030.446592761557
2022-10-06T14:54:43.643Z,1030.461180671293
2022-10-06T15:01:11.239Z,1030.406402240538
2022-10-06T15:07:38.923Z,1030.36545893923
2022-10-06T15:23:23.551Z,1030.335053196003
2022-10-06T15:32:44.732Z,1030.3975886349128
2022-10-06T15:41:43.406Z,1030.3455550332937
2022-10-06T15:48:11.537Z,1030.3546809195552
2022-10-06T15:54:42.038Z,1030.3852476829286
2022-10-06T16:01:12.907Z,1030.422972535444
2022-10-06T16:07:44.977Z,1030.466696177229
2022-10-06T16:14:36.855Z,1030.4737488063518
2022-10-06T16:21:11.519Z,1030.506944752544
2022-10-06T16:28:09.633Z,1030.5631060239373
2022-10-06T16:34:51.140Z,1030.6151695893484
2022-10-06T16:41:37.642Z,1030.6403788623643
2022-10-06T16:48:50.889Z,1030.7053108253235
2022-10-06T17:00:22.741Z,1030.8414510016576
2022-10-06T17:13:21.554Z,1030.8543255909033
2022-10-06T17:26:19.143Z,1030.8114734708834
2022-10-06T17:33:59.953Z,1030.8656289532241
2022-10-06T17:55:05.297Z,1030.9497659378171
2022-10-06T18:01:36.263Z,1030.9522941840617
2022-10-06T18:08:10.815Z,1030.97507295084
2022-10-06T18:14:39.856Z,1031.0142848367775
2022-10-06T18:21:09.638Z,1031.005136999288
2022-10-06T18:27:44.548Z,1030.9513383993547
2022-10-06T18:36:10.947Z,1030.9565047753424
2022-10-06T18:43:36.707Z,1030.9801855336698
2022-10-06T18:52:23.743Z,1030.9568365171294
2022-10-06T18:58:55.618Z,1030.9555154920433
2022-10-06T19:05:24.931Z,1030.9585212938518
2022-10-06T19:16:40.025Z,1030.9791802270804
2022-10-06T19:23:12.048Z,1031.0747202630148
2022-10-06T19:35:10.153Z,1031.125360130582
2022-10-06T19:41:40.086Z,1031.161990546337
2022-10-06T19:48:14.021Z,1031.1675729512574
2022-10-06T19:54:50.850Z,1031.1607966187896
2022-10-06T20:01:46.767Z,1031.1519785400387
2022-10-06T20:08:38.464Z,1031.1229929557178
2022-10-06T20:15:34.617Z,1031.1165209073204
2022-10-06T20:24:16.686Z,1031.1650963232498
2022-10-06T20:31:00.962Z,1031.182284610281
2022-10-06T20:42:58.615Z,1031.1042148784165
2022-10-06T20:49:28.015Z,1031.100102182416
2022-10-06T20:55:58.785Z,1031.0797778567335
2022-10-06T21:02:29.042Z,1031.0504875757542
2022-10-06T21:08:57.340Z,1031.0196888436517
2022-10-06T21:15:26.409Z,1031.0193192071392
2022-10-06T21:23:28.673Z,1031.0149861411783
2022-10-06T21:30:01.149Z,1030.9867607764106
2022-10-06T21:36:35.349Z,1030.9365299117148
2022-10-06T21:43:09.047Z,1030.91730128722
2022-10-06T21:55:16.737Z,1030.8482719953215
2022-10-06T22:01:46.578Z,1030.8520410375033
2022-10-06T22:13:49.309Z,1030.737328476632
2022-10-06T22:28:57.848Z,1030.5897691500238
2022-10-06T22:40:26.185Z,1030.5603416545512
2022-10-06T22:46:54.298Z,1030.5257171404803
2022-10-06T22:58:13.438Z,1030.5172148768881
2022-10-06T23:04:43.696Z,1030.4372717069098
2022-10-06T23:11:16.513Z,1030.3409327320987
2022-10-06T23:17:54.922Z,1030.296560007332
2022-10-06T23:24:23.769Z,1030.1867273778719
2022-10-06T23:33:46.689Z,1030.0908921048451
2022-10-06T23:40:13.719Z,1030.0524534875885
2022-10-06T23:46:46.557Z,1029.9890440796257
2022-10-06T23:58:01.263Z,1029.9086494880949
